Time;durP1;ratioP1;P1;durP2;ratioP2;P2;SDS_P1;SDS_P2;PMS_P1;PMS_P2;Temp;Humidity;BMP_temperature;BMP_pressure;BME280_temperature;BME280_humidity;BME280_pressure;Samples;Min_cycle;Max_cycle;Signal;HPM_P1;HPM_P2
2022/06/16 00:00:39;;;;;;;8.73;4.10;;;;;;;-141.50;100.00;63355.56;5074299;28;20049;-81
2022/06/16 00:03:08;;;;;;;7.22;4.00;;;;;;;-141.50;100.00;63355.56;5074243;28;20498;-81
2022/06/16 00:05:37;;;;;;;8.77;3.92;;;;;;;-141.50;100.00;63355.56;5076453;28;20052;-81
2022/06/16 00:08:06;;;;;;;5.97;3.60;;;;;;;-141.50;100.00;63355.56;5074847;28;20070;-80
2022/06/16 00:10:37;;;;;;;8.57;3.95;;;;;;;-141.50;100.00;63355.56;5073666;28;20139;-81
2022/06/16 00:13:04;;;;;;;10.50;3.85;;;;;;;-141.50;100.00;63355.56;5076082;28;20102;-79
2022/06/16 00:15:31;;;;;;;6.95;3.65;;;;;;;-141.50;100.00;63355.56;5085181;28;20122;-79
2022/06/16 00:17:58;;;;;;;6.38;4.18;;;;;;;-141.50;100.00;63355.56;5078553;28;20086;-79
2022/06/16 00:20:28;;;;;;;13.30;4.40;;;;;;;-141.50;100.00;63355.56;5091024;28;20094;-81
2022/06/16 00:22:55;;;;;;;7.80;4.32;;;;;;;-141.50;100.00;63355.56;5082009;28;20052;-80
2022/06/16 00:25:24;;;;;;;7.95;4.00;;;;;;;-141.50;100.00;63355.56;5076016;28;20509;-81
2022/06/16 00:27:51;;;;;;;6.90;3.97;;;;;;;-141.50;100.00;63355.56;5073644;28;20052;-81
2022/06/16 00:30:17;;;;;;;9.00;4.25;;;;;;;-141.50;100.00;63355.56;5072035;28;20075;-80
2022/06/16 00:32:44;;;;;;;7.97;4.40;;;;;;;-141.50;100.00;63355.56;5071267;28;20048;-79
2022/06/16 00:35:12;;;;;;;7.43;4.47;;;;;;;-141.50;100.00;63355.56;5071977;28;20133;-79
2022/06/16 00:37:39;;;;;;;9.20;4.60;;;;;;;-141.50;100.00;63355.56;5072030;28;20060;-81
2022/06/16 00:40:08;;;;;;;6.50;4.60;;;;;;;-141.50;100.00;63355.56;5072413;28;20048;-79
2022/06/16 00:42:35;;;;;;;10.63;4.60;;;;;;;-141.50;100.00;63355.56;5073053;28;20044;-80
2022/06/16 00:45:03;;;;;;;6.82;4.40;;;;;;;-141.50;100.00;63355.56;5073979;28;20049;-81
2022/06/16 00:47:30;;;;;;;8.60;4.20;;;;;;;-141.50;100.00;63355.56;5077664;28;20490;-80
2022/06/16 00:50:03;;;;;;;6.75;4.03;;;;;;;-141.50;100.00;63355.56;5081437;28;20048;-81
2022/06/16 00:52:34;;;;;;;6.30;3.95;;;;;;;-141.50;100.00;63355.56;5073512;28;20108;-79
2022/06/16 00:55:12;;;;;;;8.50;3.95;;;;;;;-141.50;100.00;63355.56;5055150;28;20048;-80
2022/06/16 00:57:42;;;;;;;9.30;4.00;;;;;;;-141.50;100.00;63355.56;5054951;28;20071;-80
2022/06/16 01:00:26;;;;;;;6.00;3.88;;;;;;;-141.50;100.00;63355.56;5072124;28;20056;-80
2022/06/16 01:02:53;;;;;;;10.98;4.47;;;;;;;-141.50;100.00;63355.56;5074243;28;20636;-79
2022/06/16 01:05:20;;;;;;;6.90;4.00;;;;;;;-141.50;100.00;63355.56;5055711;28;20612;-81
2022/06/16 01:07:48;;;;;;;5.70;3.85;;;;;;;-141.50;100.00;63355.56;5093728;28;20052;-81
2022/06/16 01:10:16;;;;;;;5.68;4.30;;;;;;;-141.50;100.00;63355.56;5093162;28;20478;-80
2022/06/16 01:16:25;;;;;;;8.73;4.68;;;;;;;-141.50;100.00;63355.56;5080404;28;20761;-80
2022/06/16 01:19:23;;;;;;;7.57;4.20;;;;;;;-141.50;100.00;63355.56;5064515;28;20522;-80
2022/06/16 01:22:10;;;;;;;10.57;4.88;;;;;;;-141.50;100.00;63355.56;5104158;28;20069;-80
2022/06/16 01:24:57;;;;;;;6.72;4.63;;;;;;;-141.50;100.00;63355.56;5092818;28;20497;-80
2022/06/16 01:27:40;;;;;;;5.63;4.63;;;;;;;-141.50;100.00;63355.56;5076297;28;20048;-80
2022/06/16 01:30:22;;;;;;;9.50;4.20;;;;;;;-141.50;100.00;63355.56;5095408;28;20052;-80
2022/06/16 01:33:39;;;;;;;6.05;4.32;;;;;;;-141.50;100.00;63355.56;5097022;28;20055;-80
2022/06/16 01:36:18;;;;;;;8.13;4.68;;;;;;;-141.50;100.00;63355.56;5000072;28;20061;-80
2022/06/16 01:38:47;;;;;;;8.73;4.82;;;;;;;-141.50;100.00;63355.56;5000141;28;20050;-81
2022/06/16 01:41:23;;;;;;;7.90;4.40;;;;;;;-141.50;100.00;63355.56;5071193;28;20055;-81
2022/06/16 01:44:03;;;;;;;7.88;4.57;;;;;;;-141.50;100.00;63355.56;5083341;28;20048;-81
2022/06/16 01:46:32;;;;;;;11.57;5.05;;;;;;;-141.50;100.00;63355.56;5082178;28;20104;-81
2022/06/16 01:49:41;;;;;;;6.57;4.65;;;;;;;-141.50;100.00;63355.56;5098084;28;20055;-81
2022/06/16 01:52:18;;;;;;;11.63;5.35;;;;;;;-141.50;100.00;63355.56;5091243;28;20074;-81
2022/06/16 01:54:59;;;;;;;10.90;5.57;;;;;;;-141.50;100.00;63355.56;5098755;28;20048;-81
2022/06/16 01:57:48;;;;;;;8.05;5.05;;;;;;;-141.50;100.00;63355.56;5098010;28;20044;-81
2022/06/16 02:00:24;;;;;;;5.95;4.90;;;;;;;-141.50;100.00;63355.56;5079147;28;20044;-80
2022/06/16 02:03:01;;;;;;;9.43;5.30;;;;;;;-141.50;100.00;63355.56;5096385;28;20638;-80
2022/06/16 02:05:34;;;;;;;7.75;4.85;;;;;;;-141.50;100.00;63355.56;5096393;28;20048;-81
2022/06/16 02:08:07;;;;;;;8.40;4.65;;;;;;;-141.50;100.00;63355.56;5095778;28;20048;-81
2022/06/16 02:10:41;;;;;;;7.80;4.25;;;;;;;-141.50;100.00;63355.56;5096731;28;20139;-80
2022/06/16 02:13:11;;;;;;;6.78;3.97;;;;;;;-141.50;100.00;63355.56;5096916;28;20104;-80
2022/06/16 02:15:52;;;;;;;11.13;5.00;;;;;;;-141.50;100.00;63355.56;5096861;28;20055;-80
2022/06/16 02:18:26;;;;;;;6.97;4.20;;;;;;;-141.50;100.00;63355.56;5063623;28;20073;-80
2022/06/16 02:21:17;;;;;;;5.93;3.83;;;;;;;-141.50;100.00;63355.56;5071571;28;20052;-80
2022/06/16 02:23:45;;;;;;;9.57;4.28;;;;;;;-141.50;100.00;63355.56;5056825;28;20255;-80
2022/06/16 02:26:15;;;;;;;13.55;4.10;;;;;;;-141.50;100.00;63355.56;5076655;28;20079;-80
2022/06/16 02:29:19;;;;;;;9.65;3.92;;;;;;;-141.50;100.00;63355.56;5093267;28;20060;-80
2022/06/16 02:32:11;;;;;;;8.27;4.35;;;;;;;-141.50;100.00;63355.56;5078150;28;20078;-80
2022/06/16 02:34:57;;;;;;;9.32;5.10;;;;;;;-141.50;100.00;63355.56;5046128;28;20044;-80
2022/06/16 02:37:23;;;;;;;9.00;5.53;;;;;;;-141.50;100.00;63355.56;5075447;28;20087;-79
2022/06/16 02:40:12;;;;;;;7.93;4.95;;;;;;;-141.50;100.00;63355.56;5073407;28;20049;-80
2022/06/16 02:43:06;;;;;;;11.65;5.30;;;;;;;-141.50;100.00;63355.56;5075931;28;20044;-80
2022/06/16 02:45:58;;;;;;;17.30;5.60;;;;;;;-141.50;100.00;63355.56;5076017;28;20067;-80
2022/06/16 02:49:07;;;;;;;8.68;5.68;;;;;;;-141.50;100.00;63355.56;5057662;28;20056;-80
2022/06/16 02:51:52;;;;;;;12.00;5.90;;;;;;;-141.50;100.00;63355.56;5004891;28;20093;-81
2022/06/16 02:54:32;;;;;;;8.82;5.15;;;;;;;-141.50;100.00;63355.56;5078261;28;20071;-81
2022/06/16 02:57:13;;;;;;;10.10;5.80;;;;;;;-141.50;100.00;63355.56;5077051;28;20044;-81
2022/06/16 02:59:40;;;;;;;8.05;4.72;;;;;;;-141.50;100.00;63355.56;5077089;28;20056;-81
2022/06/16 03:02:15;;;;;;;9.43;5.43;;;;;;;-141.50;100.00;63355.56;5059700;28;20367;-81
2022/06/16 03:04:49;;;;;;;13.82;5.70;;;;;;;-141.50;100.00;63355.56;5059487;28;20451;-81
2022/06/16 03:07:16;;;;;;;10.85;5.82;;;;;;;-141.50;100.00;63355.56;5078315;28;20060;-80
2022/06/16 03:09:43;;;;;;;12.85;6.18;;;;;;;-141.50;100.00;63355.56;5075329;28;20071;-80
2022/06/16 03:12:12;;;;;;;12.07;5.72;;;;;;;-141.50;100.00;63355.56;5080197;28;20098;-81
2022/06/16 03:14:39;;;;;;;9.52;5.97;;;;;;;-141.50;100.00;63355.56;5078109;28;20082;-81
2022/06/16 03:17:07;;;;;;;8.82;5.03;;;;;;;-141.50;100.00;63355.56;5074422;28;20075;-79
2022/06/16 03:19:34;;;;;;;12.18;5.18;;;;;;;-141.50;100.00;63355.56;5056702;28;20478;-79
2022/06/16 03:22:03;;;;;;;9.25;5.90;;;;;;;-141.50;100.00;63355.56;5056533;28;20049;-80
2022/06/16 03:24:29;;;;;;;13.43;6.15;;;;;;;-141.50;100.00;63355.56;5053502;28;20072;-79
2022/06/16 03:26:56;;;;;;;8.80;6.00;;;;;;;-141.50;100.00;63355.56;5073399;28;20526;-80
2022/06/16 03:29:23;;;;;;;12.88;5.90;;;;;;;-141.50;100.00;63355.56;5061201;28;20098;-79
2022/06/16 03:31:50;;;;;;;10.27;5.60;;;;;;;-141.50;100.00;63355.56;5097151;28;20044;-81
2022/06/16 03:34:17;;;;;;;12.90;5.68;;;;;;;-141.50;100.00;63355.56;5106172;28;20047;-81
2022/06/16 03:36:44;;;;;;;8.45;5.80;;;;;;;-141.50;100.00;63355.56;5093944;28;20108;-81
2022/06/16 03:39:10;;;;;;;10.05;5.97;;;;;;;-141.50;100.00;63355.56;5090099;28;20044;-81
2022/06/16 03:41:37;;;;;;;8.38;5.78;;;;;;;-141.50;100.00;63355.56;5072642;28;20028;-81
2022/06/16 03:44:04;;;;;;;8.95;5.57;;;;;;;-141.50;100.00;63355.56;5074588;28;20064;-82
2022/06/16 03:46:31;;;;;;;10.25;5.43;;;;;;;-141.50;100.00;63355.56;5070337;28;20049;-80
2022/06/16 03:48:58;;;;;;;12.48;5.57;;;;;;;-141.50;100.00;63355.56;5057002;28;20044;-81
2022/06/16 03:51:24;;;;;;;9.25;5.63;;;;;;;-141.50;100.00;63355.56;5074125;28;20048;-81
2022/06/16 03:53:51;;;;;;;10.77;5.35;;;;;;;-141.50;100.00;63355.56;5080384;28;20048;-81
2022/06/16 03:56:18;;;;;;;12.15;5.50;;;;;;;-141.50;100.00;63355.56;5093897;28;20122;-82
2022/06/16 03:58:44;;;;;;;7.53;4.95;;;;;;;-141.50;100.00;63355.56;5095630;28;20048;-81
2022/06/16 04:01:11;;;;;;;13.73;5.53;;;;;;;-141.50;100.00;63355.56;5093996;28;20051;-81
2022/06/16 04:06:23;;;;;;;11.32;5.13;;;;;;;-141.50;100.00;63355.56;5083923;28;20517;-80
2022/06/16 04:08:49;;;;;;;8.40;5.20;;;;;;;-141.50;100.00;63355.56;5054729;28;20151;-81
2022/06/16 04:11:28;;;;;;;12.70;5.15;;;;;;;-141.50;100.00;63355.56;5079286;28;20040;-81
2022/06/16 04:14:00;;;;;;;8.77;4.72;;;;;;;-141.50;100.00;63355.56;5080605;28;20044;-80
2022/06/16 04:16:29;;;;;;;9.63;5.20;;;;;;;-141.50;100.00;63355.56;5013450;28;1160240;-80
2022/06/16 04:18:55;;;;;;;11.70;5.47;;;;;;;-141.50;100.00;63355.56;5072672;28;20053;-80
2022/06/16 04:21:22;;;;;;;11.75;5.22;;;;;;;-141.50;100.00;63355.56;5082795;28;20080;-79
2022/06/16 04:23:49;;;;;;;11.98;5.47;;;;;;;-141.50;100.00;63355.56;5080010;28;20106;-79
2022/06/16 04:26:16;;;;;;;10.45;5.00;;;;;;;-141.50;100.00;63355.56;5082916;28;20426;-79
2022/06/16 04:28:42;;;;;;;8.40;5.00;;;;;;;-141.50;100.00;63355.56;5082311;28;20048;-81
2022/06/16 04:31:10;;;;;;;8.70;5.22;;;;;;;-141.50;100.00;63355.56;5081051;28;20051;-82
2022/06/16 04:33:38;;;;;;;11.73;5.60;;;;;;;-141.50;100.00;63355.56;5089951;28;20056;-82
2022/06/16 04:36:05;;;;;;;8.38;5.60;;;;;;;-141.50;100.00;63355.56;5089332;28;20052;-81
2022/06/16 04:38:32;;;;;;;7.93;5.15;;;;;;;-141.50;100.00;63355.56;5106688;28;20043;-82
2022/06/16 04:40:58;;;;;;;13.52;5.50;;;;;;;-141.50;100.00;63355.56;5106236;28;20093;-81
2022/06/16 04:43:26;;;;;;;12.18;5.88;;;;;;;-141.50;100.00;63355.56;5097607;28;20048;-83
2022/06/16 04:45:55;;;;;;;8.82;5.53;;;;;;;-141.50;100.00;63355.56;5086968;28;20051;-81
2022/06/16 04:48:22;;;;;;;12.48;5.43;;;;;;;-141.50;100.00;63355.56;5100205;28;20036;-82
2022/06/16 04:50:48;;;;;;;14.70;5.38;;;;;;;-141.50;100.00;63355.56;5071676;28;20064;-83
2022/06/16 04:53:17;;;;;;;9.98;4.75;;;;;;;-141.50;100.00;63355.56;5058710;28;20059;-81
2022/06/16 04:56:01;;;;;;;7.95;5.15;;;;;;;-141.50;100.00;63355.56;5076487;28;20071;-82
2022/06/16 04:58:28;;;;;;;8.32;5.10;;;;;;;-141.50;100.00;63355.56;5054146;28;20072;-81
2022/06/16 05:00:56;;;;;;;8.55;4.53;;;;;;;-141.50;100.00;63355.56;5054462;28;20120;-82
2022/06/16 05:03:42;;;;;;;10.25;4.75;;;;;;;-141.50;100.00;63355.56;5078117;28;20053;-80
2022/06/16 05:06:09;;;;;;;12.77;5.38;;;;;;;-141.50;100.00;63355.56;5069790;28;20049;-79
2022/06/16 05:08:36;;;;;;;10.77;4.88;;;;;;;-141.50;100.00;63355.56;5073903;28;20044;-78
2022/06/16 05:11:03;;;;;;;7.10;4.60;;;;;;;-141.50;100.00;63355.56;5074714;28;20052;-79
2022/06/16 05:13:30;;;;;;;8.30;4.70;;;;;;;-141.50;100.00;63355.56;5055279;28;20056;-80
2022/06/16 05:15:57;;;;;;;14.75;4.60;;;;;;;-141.50;100.00;63355.56;5073259;28;20040;-80
2022/06/16 05:18:23;;;;;;;19.45;4.53;;;;;;;-141.50;100.00;63355.56;5070295;28;20067;-79
2022/06/16 05:20:50;;;;;;;8.18;4.00;;;;;;;-141.50;100.00;63355.56;5070471;28;20091;-80
2022/06/16 05:23:17;;;;;;;11.52;4.60;;;;;;;-141.50;100.00;63355.56;5053953;28;20053;-79
2022/06/16 05:25:43;;;;;;;9.23;4.45;;;;;;;-141.50;100.00;63355.56;5071625;28;20057;-79
2022/06/16 05:28:14;;;;;;;11.23;4.18;;;;;;;-141.50;100.00;63355.56;5071663;28;20060;-81
2022/06/16 05:30:41;;;;;;;8.70;4.20;;;;;;;-141.50;100.00;63355.56;5053493;28;20083;-79
2022/06/16 05:33:08;;;;;;;7.95;4.50;;;;;;;-141.50;100.00;63355.56;5071249;28;20062;-80
2022/06/16 05:35:34;;;;;;;9.27;3.70;;;;;;;-141.50;100.00;63355.56;5071384;28;20049;-81
2022/06/16 05:38:01;;;;;;;12.50;3.75;;;;;;;-141.50;100.00;63355.56;5071511;28;20056;-80
2022/06/16 05:40:28;;;;;;;10.63;4.00;;;;;;;-141.50;100.00;63355.56;5052940;28;20057;-80
2022/06/16 05:42:54;;;;;;;9.13;3.85;;;;;;;-141.50;100.00;63355.56;5054108;28;20057;-80
2022/06/16 05:45:21;;;;;;;11.02;3.63;;;;;;;-141.50;100.00;63355.56;5072535;28;20583;-81
2022/06/16 05:47:48;;;;;;;12.40;3.80;;;;;;;-141.50;100.00;63355.56;5072571;28;20106;-80
2022/06/16 05:50:17;;;;;;;10.95;5.00;;;;;;;-141.50;100.00;63355.56;5054783;28;20052;-80
2022/06/16 05:52:44;;;;;;;11.48;4.70;;;;;;;-141.50;100.00;63355.56;5055105;28;20052;-80
2022/06/16 05:55:13;;;;;;;11.20;4.93;;;;;;;-141.50;100.00;63355.56;5054578;28;20045;-80
2022/06/16 05:57:40;;;;;;;11.40;4.75;;;;;;;-141.50;100.00;63355.56;5054411;28;20083;-79
2022/06/16 06:00:07;;;;;;;11.30;4.78;;;;;;;-141.50;100.00;63355.56;5054298;28;20053;-79
2022/06/16 06:02:34;;;;;;;10.23;4.47;;;;;;;-141.50;100.00;63355.56;5072213;28;20055;-80
2022/06/16 06:05:01;;;;;;;10.50;4.28;;;;;;;-141.50;100.00;63355.56;5071964;28;20083;-79
2022/06/16 06:16:25;;;;;;;10.45;4.47;;;;;;;-141.50;100.00;63355.56;5053341;28;20044;-79
2022/06/16 06:18:34;;;;;;;7.93;4.25;;;;;;;-141.50;100.00;63355.56;5080169;28;20044;-80
2022/06/16 06:21:00;;;;;;;13.82;4.40;;;;;;;-141.50;100.00;63355.56;5077885;28;20052;-81
2022/06/16 06:23:27;;;;;;;7.72;4.47;;;;;;;-141.50;100.00;63355.56;5074164;28;20095;-78
2022/06/16 06:25:56;;;;;;;10.27;4.47;;;;;;;-141.50;100.00;63355.56;5074580;28;20044;-80
2022/06/16 06:28:26;;;;;;;7.70;4.82;;;;;;;-141.50;100.00;63355.56;5076466;28;20052;-81
2022/06/16 06:30:52;;;;;;;13.82;4.68;;;;;;;-141.50;100.00;63355.56;5075040;28;20072;-81
2022/06/16 06:33:22;;;;;;;12.65;4.88;;;;;;;-141.50;100.00;63355.56;5076074;28;20167;-80
2022/06/16 06:35:48;;;;;;;17.15;5.00;;;;;;;-141.50;100.00;63355.56;5075445;28;20064;-81
2022/06/16 06:38:18;;;;;;;10.18;3.95;;;;;;;-141.50;100.00;63355.56;5075461;28;20671;-81
2022/06/16 06:40:44;;;;;;;10.35;4.20;;;;;;;-141.50;100.00;63355.56;5074771;28;20458;-79
2022/06/16 06:43:11;;;;;;;12.63;4.20;;;;;;;-141.50;100.00;63355.56;5075167;28;20083;-80
2022/06/16 06:45:38;;;;;;;11.05;4.15;;;;;;;-141.50;100.00;63355.56;5075008;28;20048;-80
2022/06/16 06:48:07;;;;;;;13.07;4.40;;;;;;;-141.50;100.00;63355.56;5075047;28;20059;-81
2022/06/16 06:50:37;;;;;;;12.00;4.43;;;;;;;-141.50;100.00;63355.56;5056619;28;20048;-80
2022/06/16 06:53:05;;;;;;;12.70;4.35;;;;;;;-141.50;100.00;63355.56;5076000;28;20183;-80
2022/06/16 06:55:35;;;;;;;11.73;4.25;;;;;;;-141.50;100.00;63355.56;5074806;28;20044;-80
2022/06/16 06:58:01;;;;;;;11.15;4.22;;;;;;;-141.50;100.00;63355.56;5056366;28;20559;-79
2022/06/16 07:00:29;;;;;;;8.00;3.92;;;;;;;-141.50;100.00;63355.56;5056653;28;20052;-79
2022/06/16 07:02:56;;;;;;;7.72;3.83;;;;;;;-141.50;100.00;63355.56;5074680;28;20388;-82
2022/06/16 07:05:23;;;;;;;10.38;3.90;;;;;;;-141.50;100.00;63355.56;5057022;28;20079;-81
2022/06/16 07:07:50;;;;;;;13.27;4.00;;;;;;;-141.50;100.00;63355.56;5078278;28;20083;-79
2022/06/16 07:10:18;;;;;;;10.93;4.00;;;;;;;-141.50;100.00;63355.56;5083010;28;20071;-80
2022/06/16 07:12:45;;;;;;;9.40;4.30;;;;;;;-141.50;100.00;63355.56;5077501;28;20610;-79
2022/06/16 07:15:12;;;;;;;10.98;4.30;;;;;;;-141.50;100.00;63355.56;5057207;28;20056;-80
2022/06/16 07:17:39;;;;;;;11.63;4.38;;;;;;;-141.50;100.00;63355.56;5058241;28;20938;-78
2022/06/16 07:20:06;;;;;;;8.48;3.70;;;;;;;-141.50;100.00;63355.56;5056514;28;20634;-80
2022/06/16 07:22:33;;;;;;;10.85;4.00;;;;;;;-141.50;100.00;63355.56;5056609;28;20053;-81
2022/06/16 07:24:59;;;;;;;13.13;4.32;;;;;;;-141.50;100.00;63355.56;5056930;28;20084;-79
2022/06/16 07:27:26;;;;;;;10.32;4.75;;;;;;;-141.50;100.00;63355.56;5055760;28;20067;-79
2022/06/16 07:29:54;;;;;;;10.50;4.85;;;;;;;-141.50;100.00;63355.56;5075136;28;20057;-79
2022/06/16 07:32:20;;;;;;;11.50;4.43;;;;;;;-141.50;100.00;63355.56;5081184;28;20126;-80
2022/06/16 07:34:48;;;;;;;10.10;4.10;;;;;;;-141.50;100.00;63355.56;5092317;28;20071;-82
2022/06/16 07:37:15;;;;;;;8.80;4.60;;;;;;;-141.50;100.00;63355.56;5093519;28;20040;-81
2022/06/16 07:39:41;;;;;;;16.17;5.20;;;;;;;-141.50;100.00;63355.56;5075184;28;20067;-81
2022/06/16 07:42:23;;;;;;;;;;;;;;;;;;;;;
2022/06/16 07:44:49;;;;;;;12.40;4.97;;;;;;;-141.50;100.00;63355.56;5087122;28;20052;-77
2022/06/16 07:47:16;;;;;;;15.10;5.03;;;;;;;-141.50;100.00;63355.56;5070516;28;20079;-77
2022/06/16 07:49:43;;;;;;;14.45;5.15;;;;;;;-141.50;100.00;63355.56;5085155;28;20572;-78
2022/06/16 07:52:09;;;;;;;17.40;5.15;;;;;;;-141.50;100.00;63355.56;5055596;28;20052;-79
2022/06/16 07:54:38;;;;;;;16.60;5.07;;;;;;;-141.50;100.00;63355.56;5077255;28;20507;-78
2022/06/16 07:57:21;;;;;;;24.58;5.97;;;;;;;-141.50;100.00;63355.56;5071187;28;20067;-80
2022/06/16 07:59:56;;;;;;;16.27;5.60;;;;;;;-141.50;100.00;63355.56;5066915;28;20052;-80
2022/06/16 08:02:23;;;;;;;22.25;5.90;;;;;;;-141.50;100.00;63355.56;5055733;28;20057;-80
2022/06/16 08:04:50;;;;;;;17.45;7.10;;;;;;;-141.50;100.00;63355.56;5071479;28;20059;-79
2022/06/16 08:07:17;;;;;;;17.95;7.05;;;;;;;-141.50;100.00;63355.56;5054171;28;20045;-78
2022/06/16 08:09:44;;;;;;;15.90;7.47;;;;;;;-141.50;100.00;63355.56;5054721;28;20456;-78
2022/06/16 08:12:11;;;;;;;18.85;9.02;;;;;;;-141.50;100.00;63355.56;5071434;28;20045;-78
2022/06/16 08:14:43;;;;;;;22.35;7.60;;;;;;;-141.50;100.00;63355.56;5073538;28;20049;-81
2022/06/16 08:17:15;;;;;;;12.27;5.57;;;;;;;-141.50;100.00;63355.56;5055870;28;20108;-81
2022/06/16 08:19:42;;;;;;;11.63;5.47;;;;;;;-141.50;100.00;63355.56;5073448;28;20114;-83
2022/06/16 08:22:08;;;;;;;18.15;5.93;;;;;;;-141.50;100.00;63355.56;5073213;28;20053;-80
2022/06/16 08:24:36;;;;;;;12.75;6.30;;;;;;;-141.50;100.00;63355.56;5072824;28;20052;-80
2022/06/16 08:27:03;;;;;;;14.27;6.75;;;;;;;-141.50;100.00;63355.56;5054888;28;20040;-80
2022/06/16 08:29:32;;;;;;;16.35;4.72;;;;;;;-141.50;100.00;63355.56;5072620;28;20074;-80
2022/06/16 08:31:59;;;;;;;18.42;4.65;;;;;;;-141.50;100.00;63355.56;5053472;28;20068;-79
2022/06/16 08:34:26;;;;;;;11.10;4.07;;;;;;;-141.50;100.00;63355.56;5071760;28;20083;-80
2022/06/16 08:36:52;;;;;;;7.00;4.28;;;;;;;-141.50;100.00;63355.56;5073201;28;20148;-81
2022/06/16 08:39:19;;;;;;;15.98;3.83;;;;;;;-141.50;100.00;63355.56;5079864;28;20556;-81
2022/06/16 08:41:55;;;;;;;8.85;3.90;;;;;;;-141.50;100.00;63355.56;5073164;28;20064;-80
2022/06/16 08:44:42;;;;;;;9.48;4.28;;;;;;;-141.50;100.00;63355.56;5055220;28;20127;-80
2022/06/16 08:47:20;;;;;;;11.52;4.05;;;;;;;-141.50;100.00;63355.56;5072705;28;20052;-81
2022/06/16 08:50:23;;;;;;;13.35;4.18;;;;;;;-141.50;100.00;63355.56;5058643;28;20040;-80
2022/06/16 08:53:36;;;;;;;12.70;4.13;;;;;;;-141.50;100.00;63355.56;5072890;28;20028;-80
2022/06/16 08:56:11;;;;;;;8.23;3.95;;;;;;;-141.50;100.00;63355.56;4990715;28;20042;-77
2022/06/16 08:58:56;;;;;;;11.88;4.28;;;;;;;-141.50;100.00;63355.56;5063239;28;20056;-80
2022/06/16 09:01:44;;;;;;;13.55;4.38;;;;;;;-141.50;100.00;63355.56;5072322;28;20080;-80
2022/06/16 09:04:26;;;;;;;16.15;4.47;;;;;;;-141.50;100.00;63355.56;5071489;28;20429;-81
2022/06/16 09:07:11;;;;;;;14.93;3.90;;;;;;;-141.50;100.00;63355.56;5070888;28;20072;-79
2022/06/16 09:12:37;;;;;;;11.45;4.55;;;;;;;-141.50;100.00;63355.56;5072240;28;20049;-80
2022/06/16 09:15:13;;;;;;;9.63;4.47;;;;;;;-141.50;100.00;63355.56;5053075;28;20044;-78
2022/06/16 09:18:11;;;;;;;12.52;4.32;;;;;;;-141.50;100.00;63355.56;5071379;28;20049;-80
2022/06/16 09:20:46;;;;;;;9.85;4.57;;;;;;;-141.50;100.00;63355.56;5064723;28;20471;-78
2022/06/16 09:23:37;;;;;;;15.25;5.00;;;;;;;-141.50;100.00;63355.56;5054142;28;20116;-79
2022/06/16 09:26:32;;;;;;;11.93;5.00;;;;;;;-141.50;100.00;63355.56;5054670;28;20044;-78
2022/06/16 09:29:09;;;;;;;14.68;4.20;;;;;;;-141.50;100.00;63355.56;5070199;28;20103;-78
2022/06/16 09:31:47;;;;;;;13.85;5.13;;;;;;;-141.50;100.00;63355.56;5071551;28;20106;-76
2022/06/16 09:34:22;;;;;;;16.52;5.05;;;;;;;-141.50;100.00;63355.56;5060758;28;20053;-77
2022/06/16 09:36:58;;;;;;;15.00;5.18;;;;;;;-141.50;100.00;63355.56;5072815;28;20045;-78
2022/06/16 09:39:33;;;;;;;11.73;4.82;;;;;;;-141.50;100.00;63355.56;5051542;28;20128;-78
2022/06/16 09:42:34;;;;;;;13.75;4.90;;;;;;;-141.50;100.00;63355.56;5069581;28;20052;-77
2022/06/16 09:45:20;;;;;;;10.82;4.80;;;;;;;-141.50;100.00;63355.56;5069966;28;20418;-77
2022/06/16 09:47:47;;;;;;;;;;;;;;;-141.50;100.00;63355.56;5072212;28;20457;-80
2022/06/16 09:50:25;;;;;;;14.90;4.63;;;;;;;-141.50;100.00;63355.56;5056157;28;19921;-81
2022/06/16 09:53:14;;;;;;;13.20;4.85;;;;;;;-141.50;100.00;63355.56;5076595;28;20525;-78
2022/06/16 09:55:46;;;;;;;13.50;4.97;;;;;;;-141.50;100.00;63355.56;5076528;28;20438;-81
2022/06/16 09:58:22;;;;;;;11.07;4.00;;;;;;;-141.50;100.00;63355.56;5077149;28;20202;-80
2022/06/16 10:00:53;;;;;;;10.77;3.67;;;;;;;-141.50;100.00;63355.56;5075629;28;20132;-79
2022/06/16 10:03:33;;;;;;;;;;;;;;;-141.50;100.00;63355.56;5061508;28;20497;-76
2022/06/16 10:06:29;;;;;;;9.98;4.10;;;;;;;-141.50;100.00;63355.56;5085951;28;19920;-77
2022/06/16 10:09:15;;;;;;;11.40;4.63;;;;;;;-141.50;100.00;63355.56;5083987;28;20080;-77
2022/06/16 10:11:57;;;;;;;13.85;4.40;;;;;;;-141.50;100.00;63355.56;5083402;28;20048;-78
2022/06/16 10:14:37;;;;;;;14.27;4.20;;;;;;;-141.50;100.00;63355.56;5057169;28;20044;-80
2022/06/16 10:17:10;;;;;;;11.35;3.92;;;;;;;-141.50;100.00;63355.56;5075570;28;20080;-78
2022/06/16 10:19:44;;;;;;;11.68;4.05;;;;;;;-141.50;100.00;63355.56;5059746;28;20048;-79
2022/06/16 10:22:20;;;;;;;10.67;3.40;;;;;;;-141.50;100.00;63355.56;5073918;28;20059;-77
2022/06/16 10:25:15;;;;;;;11.00;3.50;;;;;;;-141.50;100.00;63355.56;5059843;28;20348;-79
2022/06/16 10:27:51;;;;;;;13.48;3.45;;;;;;;-141.50;100.00;63355.56;5056614;28;20048;-79
2022/06/16 10:30:21;;;;;;;11.73;3.03;;;;;;;-141.50;100.00;63355.56;5057129;28;20106;-78
2022/06/16 10:32:58;;;;;;;7.72;3.30;;;;;;;-141.50;100.00;63355.56;5074173;28;20059;-77
2022/06/16 10:35:27;;;;;;;7.60;2.92;;;;;;;-141.50;100.00;63355.56;5074006;28;20048;-79
2022/06/16 10:37:54;;;;;;;7.03;3.10;;;;;;;-141.50;100.00;63355.56;5073478;28;20068;-80
2022/06/16 10:40:36;;;;;;;7.20;3.13;;;;;;;-141.50;100.00;63355.56;5073276;28;20095;-80
2022/06/16 10:43:23;;;;;;;9.32;3.45;;;;;;;-141.50;100.00;63355.56;5072328;28;20055;-79
2022/06/16 10:46:09;;;;;;;10.38;3.25;;;;;;;-141.50;100.00;63355.56;5056219;28;20053;-78
2022/06/16 10:48:37;;;;;;;10.60;3.95;;;;;;;-141.50;100.00;63355.56;5074518;28;20052;-81
2022/06/16 10:51:12;;;;;;;9.85;3.60;;;;;;;-141.50;100.00;63355.56;5078746;28;20072;-78
2022/06/16 10:53:40;;;;;;;12.75;3.58;;;;;;;-141.50;100.00;63355.56;5080126;28;20052;-80
2022/06/16 10:56:19;;;;;;;13.85;3.50;;;;;;;-141.50;100.00;63355.56;5075643;28;20079;-80
2022/06/16 10:59:25;;;;;;;11.05;3.53;;;;;;;-141.50;100.00;63355.56;5074364;28;20056;-80
2022/06/16 11:01:59;;;;;;;6.63;3.53;;;;;;;-141.50;100.00;63355.56;5010292;28;20081;-79
2022/06/16 11:04:38;;;;;;;13.13;3.67;;;;;;;-141.50;100.00;63355.56;5011297;28;20101;-79
2022/06/16 11:07:11;;;;;;;10.65;3.75;;;;;;;-141.50;100.00;63355.56;5032996;28;20048;-78
2022/06/16 11:09:41;;;;;;;10.15;3.72;;;;;;;-141.50;100.00;63355.56;5072330;28;20522;-79
2022/06/16 11:12:32;;;;;;;12.93;3.50;;;;;;;-141.50;100.00;63355.56;5072211;28;20126;-81
2022/06/16 11:15:04;;;;;;;12.90;3.28;;;;;;;-141.50;100.00;63355.56;5074976;28;20048;-77
2022/06/16 11:17:37;;;;;;;11.25;3.53;;;;;;;-141.50;100.00;63355.56;5076372;28;20068;-79
2022/06/16 11:20:09;;;;;;;12.05;3.90;;;;;;;-141.50;100.00;63355.56;5074220;28;20131;-79
2022/06/16 11:22:40;;;;;;;8.77;3.53;;;;;;;-141.50;100.00;63355.56;5055839;28;20052;-79
2022/06/16 11:25:24;;;;;;;7.57;3.35;;;;;;;-141.50;100.00;63355.56;5073330;28;20056;-78
2022/06/16 11:27:58;;;;;;;5.47;3.10;;;;;;;-141.50;100.00;63355.56;5074296;28;20083;-78
2022/06/16 11:30:31;;;;;;;11.50;3.97;;;;;;;-141.50;100.00;63355.56;5056008;28;20540;-78
2022/06/16 11:32:58;;;;;;;13.73;3.20;;;;;;;-141.50;100.00;63355.56;5055888;28;20052;-79
2022/06/16 11:35:46;;;;;;;11.15;3.60;;;;;;;-141.50;100.00;63355.56;5056745;28;20052;-78
2022/06/16 11:38:19;;;;;;;10.98;4.05;;;;;;;-141.50;100.00;63355.56;5075212;28;20095;-79
2022/06/16 11:40:59;;;;;;;16.52;3.83;;;;;;;-141.50;100.00;63355.56;5079767;28;20083;-79
2022/06/16 11:43:44;;;;;;;7.68;3.83;;;;;;;-141.50;100.00;63355.56;5088476;28;20048;-79
2022/06/16 11:46:43;;;;;;;15.45;4.88;;;;;;;-141.50;100.00;63355.56;5080509;28;20059;-80
2022/06/16 11:49:48;;;;;;;9.85;4.03;;;;;;;-141.50;100.00;63355.56;5083710;28;20059;-79
2022/06/16 11:52:26;;;;;;;12.75;4.10;;;;;;;-141.50;100.00;63355.56;5055363;28;20521;-79